createdAt,value
2023-05-14T00:01:07.659Z,3.90
2023-05-14T00:03:35.078Z,3.20
2023-05-14T00:06:02.683Z,3.60
2023-05-14T00:08:29.428Z,3.60
2023-05-14T00:10:56.262Z,3.60
2023-05-14T00:13:25.457Z,3.60
2023-05-14T00:15:52.356Z,3.10
2023-05-14T00:18:19.252Z,3.10
2023-05-14T00:20:45.985Z,2.90
2023-05-14T00:23:12.930Z,3.00
2023-05-14T00:25:39.879Z,3.30
2023-05-14T00:28:06.817Z,3.10
2023-05-14T00:30:34.475Z,2.90
2023-05-14T00:33:01.460Z,3.10
2023-05-14T00:35:28.497Z,3.90
2023-05-14T00:37:55.421Z,3.40
2023-05-14T00:40:26.039Z,2.90
2023-05-14T00:42:54.429Z,3.00
2023-05-14T00:45:21.787Z,3.50
2023-05-14T00:47:49.181Z,2.70
2023-05-14T00:50:17.410Z,3.50
2023-05-14T00:52:44.566Z,2.70
2023-05-14T00:55:15.955Z,3.20
2023-05-14T00:57:43.366Z,3.30
2023-05-14T01:00:10.613Z,2.90
2023-05-14T01:02:38.053Z,3.80
2023-05-14T01:05:06.313Z,2.90
2023-05-14T01:07:52.860Z,4.00
2023-05-14T01:10:28.296Z,3.70
2023-05-14T01:13:04.360Z,4.30
2023-05-14T01:15:34.678Z,3.50
2023-05-14T01:18:06.109Z,3.60
2023-05-14T01:20:33.191Z,4.00
2023-05-14T01:23:00.122Z,3.80
2023-05-14T01:25:27.280Z,3.60
2023-05-14T01:27:54.009Z,3.60
2023-05-14T01:30:31.816Z,3.90
2023-05-14T01:33:02.796Z,4.30
2023-05-14T01:35:30.509Z,4.30
2023-05-14T01:38:01.077Z,4.40
2023-05-14T01:40:29.310Z,3.80
2023-05-14T01:42:57.022Z,3.90
2023-05-14T01:45:24.226Z,3.80
2023-05-14T01:47:52.202Z,3.80
2023-05-14T01:50:19.236Z,3.10
2023-05-14T01:52:47.719Z,3.40
2023-05-14T01:55:15.291Z,3.60
2023-05-14T01:57:42.118Z,3.60
2023-05-14T02:00:09.479Z,3.20
2023-05-14T02:02:42.337Z,3.30
2023-05-14T02:05:11.148Z,3.40
2023-05-14T02:07:38.806Z,3.60
2023-05-14T02:10:06.584Z,3.20
2023-05-14T02:12:33.943Z,2.90
2023-05-14T02:15:00.970Z,2.90
2023-05-14T02:17:28.182Z,3.00
2023-05-14T02:19:55.177Z,3.70
2023-05-14T02:22:22.025Z,3.40
2023-05-14T02:24:50.904Z,2.90
2023-05-14T02:27:18.288Z,2.80
2023-05-14T02:29:45.209Z,3.00
2023-05-14T02:32:12.112Z,2.90
2023-05-14T02:34:39.413Z,3.10
2023-05-14T02:37:06.558Z,3.10
2023-05-14T02:39:33.615Z,3.70
2023-05-14T02:42:00.747Z,3.80
2023-05-14T02:44:27.792Z,3.80
2023-05-14T02:46:54.769Z,4.10
2023-05-14T02:49:21.892Z,3.50
2023-05-14T02:51:48.727Z,3.90
2023-05-14T02:54:16.312Z,3.80
2023-05-14T02:56:43.344Z,3.70
2023-05-14T02:59:10.292Z,3.80
2023-05-14T03:01:37.536Z,4.10
2023-05-14T03:04:05.003Z,5.30
2023-05-14T03:06:32.045Z,4.70
2023-05-14T03:08:58.882Z,5.30
2023-05-14T03:11:25.943Z,5.10
2023-05-14T03:13:52.769Z,5.60
2023-05-14T03:16:19.648Z,3.90
2023-05-14T03:18:46.483Z,5.00
2023-05-14T03:21:13.810Z,4.30
2023-05-14T03:23:40.652Z,4.30
2023-05-14T03:26:07.815Z,4.20
2023-05-14T03:28:34.850Z,4.50
2023-05-14T03:31:01.892Z,5.40
2023-05-14T03:33:30.676Z,5.00
2023-05-14T03:35:57.753Z,5.60
2023-05-14T03:38:24.571Z,4.60
2023-05-14T03:40:51.410Z,4.10
2023-05-14T03:43:18.376Z,3.80
2023-05-14T03:45:45.733Z,4.00
2023-05-14T03:48:12.625Z,3.80
2023-05-14T03:50:39.708Z,4.10
2023-05-14T03:53:07.777Z,3.90
2023-05-14T03:55:34.619Z,4.00
2023-05-14T03:58:02.189Z,3.70
2023-05-14T04:00:29.233Z,4.00
2023-05-14T04:02:56.232Z,4.10
2023-05-14T04:05:23.425Z,3.90
2023-05-14T04:07:52.006Z,3.60
2023-05-14T04:10:20.382Z,3.40
2023-05-14T04:12:47.225Z,3.80
2023-05-14T04:15:14.283Z,3.60
2023-05-14T04:17:41.367Z,3.60
2023-05-14T04:20:09.182Z,3.90
2023-05-14T04:22:36.031Z,3.20
2023-05-14T04:25:02.871Z,3.80
2023-05-14T04:27:29.710Z,3.90
2023-05-14T04:29:56.552Z,4.10
2023-05-14T04:32:24.138Z,3.70
2023-05-14T04:34:51.468Z,3.90
2023-05-14T04:37:18.205Z,4.00
2023-05-14T04:39:45.045Z,4.10
2023-05-14T04:42:12.488Z,3.70
2023-05-14T04:44:39.550Z,4.50
2023-05-14T04:47:06.594Z,4.10
2023-05-14T04:49:33.455Z,3.50
2023-05-14T04:52:01.210Z,3.80
2023-05-14T04:54:28.204Z,3.30
2023-05-14T04:56:55.398Z,4.20
2023-05-14T04:59:22.243Z,3.80
2023-05-14T05:01:49.459Z,3.80
2023-05-14T05:04:16.574Z,3.70
2023-05-14T05:06:43.484Z,3.50
2023-05-14T05:09:10.336Z,3.20
2023-05-14T05:11:38.404Z,3.20
2023-05-14T05:14:05.145Z,3.80
2023-05-14T05:16:32.102Z,2.90
2023-05-14T05:18:59.048Z,3.10
2023-05-14T05:21:26.098Z,4.20
2023-05-14T05:23:52.923Z,3.80
2023-05-14T05:26:22.040Z,3.40
2023-05-14T05:28:49.438Z,3.00
2023-05-14T05:31:18.253Z,3.50
2023-05-14T05:33:47.781Z,3.70
2023-05-14T05:36:14.812Z,3.50
2023-05-14T05:38:41.656Z,3.50
2023-05-14T05:41:08.503Z,3.30
2023-05-14T05:43:35.341Z,3.30
2023-05-14T05:46:02.238Z,3.20
2023-05-14T05:48:29.226Z,3.90
2023-05-14T05:50:56.077Z,3.10
2023-05-14T05:53:23.013Z,3.10
2023-05-14T05:55:51.187Z,3.60
2023-05-14T05:58:18.856Z,3.30
2023-05-14T06:00:46.815Z,3.60
2023-05-14T06:03:14.157Z,3.30
2023-05-14T06:05:41.065Z,3.00
2023-05-14T06:08:08.064Z,3.30
2023-05-14T06:10:35.826Z,3.90
2023-05-14T06:13:02.772Z,4.00
2023-05-14T06:15:29.921Z,3.60
2023-05-14T06:17:57.138Z,3.40
2023-05-14T06:20:24.215Z,3.70
2023-05-14T06:22:51.469Z,3.40
2023-05-14T06:25:18.734Z,3.50
2023-05-14T06:27:45.579Z,4.50
2023-05-14T06:30:13.151Z,2.90
2023-05-14T06:32:40.140Z,3.10
2023-05-14T06:35:07.834Z,3.20
2023-05-14T06:37:34.986Z,3.20
2023-05-14T06:40:01.824Z,2.30
2023-05-14T06:42:28.667Z,2.70
2023-05-14T06:44:55.935Z,2.40
2023-05-14T06:47:22.816Z,2.90
2023-05-14T06:49:49.883Z,3.00
2023-05-14T06:52:17.539Z,2.30
2023-05-14T06:54:44.519Z,2.40
2023-05-14T06:57:11.260Z,2.70
2023-05-14T06:59:38.010Z,3.20
2023-05-14T07:02:05.599Z,2.70
2023-05-14T07:04:33.202Z,3.00
2023-05-14T07:07:00.315Z,2.50
2023-05-14T07:09:27.208Z,2.60
2023-05-14T07:11:54.215Z,2.50
2023-05-14T07:14:21.409Z,2.70
2023-05-14T07:16:48.265Z,3.20
2023-05-14T07:19:15.657Z,3.20
2023-05-14T07:21:42.568Z,3.40
2023-05-14T07:24:09.492Z,3.00
2023-05-14T07:26:36.338Z,3.40
2023-05-14T07:29:03.190Z,2.90
2023-05-14T07:31:30.050Z,2.80
2023-05-14T07:33:57.369Z,3.00
2023-05-14T07:36:24.828Z,3.00
2023-05-14T07:38:52.079Z,2.70
2023-05-14T07:41:18.819Z,3.10
2023-05-14T07:43:45.666Z,2.90
2023-05-14T07:46:12.528Z,2.60
2023-05-14T07:48:39.570Z,3.50
2023-05-14T07:51:06.509Z,6.50
2023-05-14T07:53:33.441Z,2.70
2023-05-14T07:56:00.695Z,2.40
2023-05-14T07:58:28.459Z,2.60
2023-05-14T08:00:56.127Z,2.20
2023-05-14T08:03:23.133Z,2.20
2023-05-14T08:05:51.954Z,2.20
2023-05-14T08:08:18.996Z,16.50
2023-05-14T08:10:45.869Z,5.80
2023-05-14T08:13:12.689Z,5.20
2023-05-14T08:15:40.654Z,22.60
2023-05-14T08:18:07.718Z,6.20
2023-05-14T08:20:34.954Z,5.50
2023-05-14T08:23:01.910Z,2.70
2023-05-14T08:25:29.256Z,21.60
2023-05-14T08:27:56.302Z,11.40
2023-05-14T08:30:23.562Z,7.10
2023-05-14T08:32:51.045Z,3.10
2023-05-14T08:35:18.673Z,13.90
2023-05-14T08:37:45.617Z,5.70
2023-05-14T08:40:12.775Z,3.10
2023-05-14T08:42:44.218Z,3.00
2023-05-14T08:45:17.713Z,2.60
2023-05-14T08:47:52.484Z,2.40
2023-05-14T08:50:22.725Z,1.70
2023-05-14T08:52:51.151Z,1.50
2023-05-14T08:55:18.598Z,1.20
2023-05-14T08:57:46.052Z,1.50
2023-05-14T09:00:15.004Z,1.30
2023-05-14T09:02:44.445Z,1.60
2023-05-14T09:05:12.010Z,1.30
2023-05-14T09:07:38.967Z,1.20
2023-05-14T09:10:08.372Z,1.80
2023-05-14T09:12:35.399Z,1.50
2023-05-14T09:15:03.515Z,1.40
2023-05-14T09:17:30.652Z,1.40
2023-05-14T09:19:58.188Z,1.40
2023-05-14T09:22:31.473Z,2.00
2023-05-14T09:25:06.120Z,1.50
2023-05-14T09:27:33.564Z,1.60
2023-05-14T09:30:09.245Z,1.50
2023-05-14T09:32:37.802Z,2.10
2023-05-14T09:35:22.964Z,1.80
2023-05-14T09:37:52.488Z,1.70
2023-05-14T09:40:21.720Z,1.80
2023-05-14T09:42:49.426Z,2.10
2023-05-14T09:45:17.012Z,2.20
2023-05-14T09:47:44.502Z,2.10
2023-05-14T09:50:11.793Z,2.40
2023-05-14T09:52:38.856Z,2.70
2023-05-14T09:55:06.559Z,2.40
2023-05-14T09:57:34.099Z,2.30
2023-05-14T10:00:00.826Z,3.30
2023-05-14T10:02:37.028Z,2.90
2023-05-14T10:05:06.433Z,2.70
2023-05-14T10:07:38.682Z,2.80
2023-05-14T10:10:08.474Z,2.90
2023-05-14T10:12:40.107Z,3.10
2023-05-14T10:15:18.822Z,3.10
2023-05-14T10:17:49.711Z,3.20
2023-05-14T10:20:17.219Z,3.40
2023-05-14T10:22:44.178Z,3.70
2023-05-14T10:25:11.528Z,3.50
2023-05-14T10:27:39.279Z,3.60
2023-05-14T10:30:13.946Z,4.10
2023-05-14T10:32:41.537Z,3.30
2023-05-14T10:35:28.891Z,2.90
2023-05-14T10:37:56.350Z,2.50
2023-05-14T10:40:24.541Z,2.30
2023-05-14T10:42:52.902Z,3.80
2023-05-14T10:45:19.738Z,3.00
2023-05-14T10:47:46.963Z,3.00
2023-05-14T10:50:15.479Z,2.50
2023-05-14T10:52:44.462Z,2.40
2023-05-14T10:55:16.378Z,2.70
2023-05-14T10:57:45.478Z,2.60
2023-05-14T11:00:14.665Z,2.40
2023-05-14T11:02:43.950Z,2.60
2023-05-14T11:05:16.668Z,2.50
2023-05-14T11:07:48.413Z,2.60
2023-05-14T11:10:18.229Z,2.90
2023-05-14T11:12:50.478Z,3.10
2023-05-14T11:15:19.602Z,3.30
2023-05-14T11:17:48.468Z,2.30
2023-05-14T11:20:18.945Z,2.50
2023-05-14T11:22:48.599Z,2.50
2023-05-14T11:25:16.450Z,2.50
2023-05-14T11:27:44.676Z,3.20
2023-05-14T11:30:13.919Z,2.70
2023-05-14T11:32:41.390Z,2.10
2023-05-14T11:35:08.813Z,2.00
2023-05-14T11:37:35.771Z,1.80
2023-05-14T11:40:09.377Z,2.40
2023-05-14T11:42:36.728Z,2.30
2023-05-14T11:45:04.701Z,2.30
2023-05-14T11:47:31.538Z,2.20
2023-05-14T11:50:00.302Z,2.10
2023-05-14T11:52:27.181Z,2.10
2023-05-14T11:54:54.032Z,2.10
2023-05-14T11:57:22.180Z,2.00
2023-05-14T11:59:58.187Z,2.20
2023-05-14T12:02:29.956Z,1.70
2023-05-14T12:04:57.306Z,1.70
2023-05-14T12:07:29.027Z,2.10
2023-05-14T12:10:00.962Z,1.50
2023-05-14T12:12:27.716Z,1.80
2023-05-14T12:14:54.636Z,1.70
2023-05-14T12:17:22.962Z,2.10
2023-05-14T12:19:53.443Z,1.80
2023-05-14T12:22:22.532Z,1.70
2023-05-14T12:24:57.165Z,2.10
2023-05-14T12:27:29.139Z,1.80
2023-05-14T12:30:19.851Z,2.10
2023-05-14T12:32:51.018Z,1.90
2023-05-14T12:35:18.561Z,1.90
2023-05-14T12:37:45.602Z,2.10
2023-05-14T12:40:13.526Z,2.30
2023-05-14T12:42:41.192Z,1.80
2023-05-14T12:45:09.170Z,2.00
2023-05-14T12:47:37.188Z,1.80
2023-05-14T12:50:05.437Z,2.10
2023-05-14T12:52:38.487Z,1.80
2023-05-14T12:55:09.738Z,2.10
2023-05-14T12:57:38.140Z,2.00
2023-05-14T13:00:07.664Z,2.00
2023-05-14T13:02:42.863Z,1.90
2023-05-14T13:05:11.497Z,1.70
2023-05-14T13:07:38.974Z,1.80
2023-05-14T13:10:06.477Z,1.50
2023-05-14T13:12:33.724Z,2.00
2023-05-14T13:15:00.481Z,2.10
2023-05-14T13:17:27.683Z,1.50
2023-05-14T13:19:54.566Z,1.80
2023-05-14T13:22:21.404Z,1.70
2023-05-14T13:24:48.243Z,2.10
2023-05-14T13:27:15.206Z,1.80
2023-05-14T13:29:42.033Z,2.00
2023-05-14T13:32:09.079Z,1.30
2023-05-14T13:34:36.021Z,1.70
2023-05-14T13:37:03.375Z,1.90
2023-05-14T13:39:30.425Z,1.90
2023-05-14T13:41:57.366Z,1.70
2023-05-14T13:44:24.384Z,1.60
2023-05-14T13:46:51.948Z,1.50
2023-05-14T13:49:19.023Z,1.40
2023-05-14T13:51:45.764Z,1.40
2023-05-14T13:54:12.714Z,2.00
2023-05-14T13:56:39.785Z,1.80
2023-05-14T13:59:06.901Z,1.40
2023-05-14T14:01:33.802Z,1.90
2023-05-14T14:04:00.692Z,2.00
2023-05-14T14:06:27.493Z,1.90
2023-05-14T14:08:54.454Z,1.90
2023-05-14T14:11:21.538Z,1.80
2023-05-14T14:13:48.795Z,1.80
2023-05-14T14:16:15.870Z,2.10
2023-05-14T14:18:42.928Z,1.60
2023-05-14T14:21:10.123Z,1.90
2023-05-14T14:23:37.040Z,2.00
2023-05-14T14:26:03.993Z,1.40
2023-05-14T14:28:32.191Z,1.90
2023-05-14T14:30:59.037Z,1.80
2023-05-14T14:33:26.618Z,1.80
2023-05-14T14:35:53.573Z,1.80
2023-05-14T14:38:20.579Z,2.30
2023-05-14T14:40:47.630Z,1.60
2023-05-14T14:43:14.384Z,1.50
2023-05-14T14:45:42.348Z,2.10
2023-05-14T14:48:33.452Z,2.00
2023-05-14T14:51:01.118Z,2.10
2023-05-14T14:53:27.951Z,2.00
2023-05-14T14:55:55.131Z,2.10
2023-05-14T14:58:22.568Z,1.80
2023-05-14T15:00:52.223Z,1.60
2023-05-14T15:03:19.735Z,1.80
2023-05-14T15:05:47.386Z,1.60
2023-05-14T15:08:15.151Z,4.10
2023-05-14T15:10:42.217Z,4.10
2023-05-14T15:13:09.141Z,5.00
2023-05-14T15:15:36.937Z,2.00
2023-05-14T15:18:04.741Z,1.70
2023-05-14T15:20:31.725Z,2.10
2023-05-14T15:22:58.561Z,1.90
2023-05-14T15:25:26.723Z,1.80
2023-05-14T15:27:53.900Z,1.30
2023-05-14T15:30:20.741Z,1.60
2023-05-14T15:32:47.624Z,1.60
2023-05-14T15:35:14.820Z,1.90
2023-05-14T15:37:44.020Z,1.60
2023-05-14T15:40:11.802Z,1.70
2023-05-14T15:42:43.438Z,1.50
2023-05-14T15:45:12.754Z,1.50
2023-05-14T15:47:43.687Z,1.30
2023-05-14T15:50:11.335Z,1.80
2023-05-14T15:52:39.200Z,1.60
2023-05-14T15:55:06.866Z,1.60
2023-05-14T15:57:34.542Z,1.50
2023-05-14T16:00:03.634Z,1.50
2023-05-14T16:02:32.801Z,1.50
2023-05-14T16:04:59.654Z,1.40
2023-05-14T16:07:26.604Z,1.40
2023-05-14T16:09:53.342Z,1.40
2023-05-14T16:12:20.386Z,1.70
2023-05-14T16:14:47.138Z,1.30
2023-05-14T16:17:14.097Z,1.30
2023-05-14T16:19:41.124Z,1.30
2023-05-14T16:22:08.369Z,1.50
2023-05-14T16:24:35.829Z,1.80
2023-05-14T16:27:03.283Z,1.60
2023-05-14T16:29:30.744Z,1.90
2023-05-14T16:31:58.010Z,2.10
2023-05-14T16:34:24.938Z,3.20
2023-05-14T16:36:51.692Z,2.20
2023-05-14T16:39:18.628Z,1.70
2023-05-14T16:41:45.661Z,1.60
2023-05-14T16:44:12.521Z,2.80
2023-05-14T16:46:39.718Z,2.90
2023-05-14T16:49:06.602Z,2.70
2023-05-14T16:51:33.552Z,2.80
2023-05-14T16:54:00.509Z,2.80
2023-05-14T16:56:27.540Z,3.10
2023-05-14T16:58:54.472Z,2.30
2023-05-14T17:01:21.350Z,5.10
2023-05-14T17:03:48.162Z,2.60
2023-05-14T17:06:14.903Z,2.00
2023-05-14T17:08:41.844Z,2.00
2023-05-14T17:11:08.694Z,2.60
2023-05-14T17:13:54.067Z,4.60
2023-05-14T17:16:21.482Z,3.50
2023-05-14T17:18:57.113Z,3.10
2023-05-14T17:21:24.111Z,2.60
2023-05-14T17:23:51.171Z,2.40
2023-05-14T17:26:18.003Z,2.50
2023-05-14T17:28:44.956Z,2.60
2023-05-14T17:31:11.781Z,2.60
2023-05-14T17:33:38.890Z,2.90
2023-05-14T17:36:06.597Z,4.10
2023-05-14T17:38:34.157Z,4.90
2023-05-14T17:41:00.968Z,5.90
2023-05-14T17:43:29.076Z,9.30
2023-05-14T17:45:56.010Z,13.50
2023-05-14T17:48:23.571Z,18.20
2023-05-14T17:50:51.466Z,20.10
2023-05-14T17:53:18.498Z,16.30
2023-05-14T17:55:45.548Z,13.20
2023-05-14T17:58:14.928Z,15.00
2023-05-14T18:00:42.971Z,15.60
2023-05-14T18:03:10.121Z,15.10
2023-05-14T18:05:37.188Z,14.60
2023-05-14T18:08:04.469Z,16.30
2023-05-14T18:10:31.425Z,16.00
2023-05-14T18:12:58.687Z,13.70
2023-05-14T18:15:26.721Z,11.50
2023-05-14T18:17:53.831Z,8.40
2023-05-14T18:20:20.734Z,7.50
2023-05-14T18:22:47.991Z,6.80
2023-05-14T18:25:15.242Z,7.40
2023-05-14T18:27:45.209Z,5.80
2023-05-14T18:30:14.249Z,7.90
2023-05-14T18:32:43.386Z,8.90
2023-05-14T18:35:11.126Z,10.30
2023-05-14T18:37:38.156Z,11.30
2023-05-14T18:40:06.448Z,12.80
2023-05-14T18:42:34.109Z,12.40
2023-05-14T18:45:01.233Z,10.50
2023-05-14T18:47:28.951Z,8.20
2023-05-14T18:49:58.629Z,7.90
2023-05-14T18:52:26.291Z,7.00
2023-05-14T18:54:54.525Z,7.10
2023-05-14T18:57:21.917Z,6.90
2023-05-14T18:59:48.749Z,8.70
2023-05-14T19:02:15.880Z,10.10
2023-05-14T19:04:51.611Z,12.00
2023-05-14T19:07:20.340Z,11.20
2023-05-14T19:09:47.479Z,8.70
2023-05-14T19:12:14.945Z,7.80
2023-05-14T19:14:41.989Z,8.40
2023-05-14T19:17:08.933Z,8.20
2023-05-14T19:19:36.074Z,10.20
2023-05-14T19:22:02.917Z,8.70
2023-05-14T19:24:29.865Z,8.20
2023-05-14T19:26:56.607Z,14.50
2023-05-14T19:29:23.544Z,11.30
2023-05-14T19:31:50.637Z,8.70
2023-05-14T19:34:17.481Z,2.70
2023-05-14T19:36:44.384Z,6.20
2023-05-14T19:39:11.233Z,3.40
2023-05-14T19:41:38.067Z,5.40
2023-05-14T19:44:05.015Z,4.60
2023-05-14T19:46:32.002Z,4.50
2023-05-14T19:48:58.902Z,3.90
2023-05-14T19:51:25.844Z,2.30
2023-05-14T19:53:52.684Z,2.50
2023-05-14T19:56:19.536Z,2.10
2023-05-14T19:58:46.472Z,1.80
2023-05-14T20:01:13.944Z,3.30
2023-05-14T20:03:40.876Z,2.90
2023-05-14T20:06:07.930Z,3.30
2023-05-14T20:08:35.080Z,2.70
2023-05-14T20:11:02.739Z,3.00
2023-05-14T20:13:31.524Z,2.30
2023-05-14T20:15:59.292Z,2.90
2023-05-14T20:18:27.140Z,2.70
2023-05-14T20:20:54.408Z,2.60
2023-05-14T20:23:21.355Z,3.10
2023-05-14T20:25:48.199Z,2.30
2023-05-14T20:28:15.030Z,2.50
2023-05-14T20:30:41.891Z,2.40
2023-05-14T20:33:08.803Z,2.40
2023-05-14T20:35:35.764Z,2.20
2023-05-14T20:38:03.324Z,1.80
2023-05-14T20:40:32.137Z,3.60
2023-05-14T20:42:59.261Z,2.50
2023-05-14T20:45:26.365Z,2.00
2023-05-14T20:47:53.492Z,2.10
2023-05-14T20:50:22.077Z,2.10
2023-05-14T20:52:48.886Z,1.90
2023-05-14T20:55:16.064Z,2.10
2023-05-14T20:57:43.616Z,2.50
2023-05-14T21:00:11.456Z,2.30
2023-05-14T21:02:38.477Z,2.40
2023-05-14T21:05:06.575Z,3.00
2023-05-14T21:07:33.417Z,3.00
2023-05-14T21:10:01.390Z,2.80
2023-05-14T21:12:28.225Z,2.20
2023-05-14T21:14:55.076Z,2.60
2023-05-14T21:17:21.966Z,2.20
2023-05-14T21:19:48.765Z,2.10
2023-05-14T21:22:15.499Z,1.60
2023-05-14T21:24:42.342Z,2.00
2023-05-14T21:27:09.180Z,2.00
2023-05-14T21:29:35.922Z,1.60
2023-05-14T21:32:02.809Z,1.70
2023-05-14T21:34:31.214Z,1.60
2023-05-14T21:36:58.906Z,1.80
2023-05-14T21:39:25.760Z,1.40
2023-05-14T21:41:52.584Z,1.90
2023-05-14T21:44:19.533Z,1.70
2023-05-14T21:46:46.989Z,1.90
2023-05-14T21:49:13.828Z,1.70
2023-05-14T21:51:40.673Z,1.80
2023-05-14T21:54:07.629Z,1.80
2023-05-14T21:56:35.380Z,1.80
2023-05-14T21:59:02.530Z,1.80
2023-05-14T22:01:29.498Z,1.60
2023-05-14T22:03:57.925Z,1.60
2023-05-14T22:06:25.942Z,1.90
2023-05-14T22:08:53.074Z,1.70
2023-05-14T22:11:20.124Z,1.50
2023-05-14T22:13:47.164Z,1.60
2023-05-14T22:16:14.401Z,1.60
2023-05-14T22:18:42.100Z,1.70
2023-05-14T22:21:09.124Z,1.40
2023-05-14T22:23:36.276Z,1.70
2023-05-14T22:26:04.045Z,1.70
2023-05-14T22:28:33.573Z,1.70
2023-05-14T22:31:00.441Z,1.50
2023-05-14T22:33:27.339Z,1.70
2023-05-14T22:35:54.072Z,1.50
2023-05-14T22:38:20.816Z,1.80
2023-05-14T22:40:47.655Z,1.40
2023-05-14T22:43:14.495Z,2.30
2023-05-14T22:45:41.340Z,1.60
2023-05-14T22:48:08.530Z,1.80
2023-05-14T22:50:36.664Z,2.10
2023-05-14T22:53:03.511Z,1.70
2023-05-14T22:55:30.448Z,1.70
2023-05-14T22:57:57.194Z,1.60
2023-05-14T23:00:24.853Z,2.00
2023-05-14T23:02:51.837Z,1.70
2023-05-14T23:05:18.946Z,1.40
2023-05-14T23:07:45.790Z,1.70
2023-05-14T23:10:12.633Z,2.20
2023-05-14T23:12:39.472Z,2.00
2023-05-14T23:15:06.828Z,1.80
2023-05-14T23:17:33.716Z,2.30
2023-05-14T23:20:00.627Z,1.90
2023-05-14T23:22:27.456Z,1.70
2023-05-14T23:24:54.297Z,1.80
2023-05-14T23:27:21.656Z,1.90
2023-05-14T23:29:48.492Z,1.80
2023-05-14T23:32:15.315Z,2.10
2023-05-14T23:34:42.281Z,2.30
2023-05-14T23:37:09.223Z,2.10
2023-05-14T23:39:36.270Z,1.80
2023-05-14T23:42:03.213Z,2.20
2023-05-14T23:44:30.159Z,1.70
2023-05-14T23:46:57.173Z,2.00
2023-05-14T23:49:24.054Z,1.90
2023-05-14T23:51:50.820Z,2.20
2023-05-14T23:54:17.517Z,2.10
2023-05-14T23:56:44.372Z,2.20
2023-05-14T23:59:11.516Z,2.10
